createdAt,value
2023-04-28T00:00:36.734Z,1.52
2023-04-28T00:03:03.741Z,1.35
2023-04-28T00:05:30.764Z,1.85
2023-04-28T00:07:57.751Z,1.20
2023-04-28T00:10:26.864Z,1.90
2023-04-28T00:12:53.689Z,1.92
2023-04-28T00:15:21.055Z,2.03
2023-04-28T00:17:49.604Z,1.50
2023-04-28T00:20:16.838Z,1.73
2023-04-28T00:23:20.718Z,1.63
2023-04-28T00:25:54.897Z,1.20
2023-04-28T00:28:33.371Z,1.75
2023-04-28T00:31:01.562Z,1.95
2023-04-28T00:33:28.514Z,1.30
2023-04-28T00:36:01.900Z,1.45
2023-04-28T00:38:28.962Z,1.60
2023-04-28T00:40:57.363Z,1.23
2023-04-28T00:43:24.544Z,1.40
2023-04-28T00:45:54.565Z,1.50
2023-04-28T00:48:22.876Z,1.70
2023-04-28T00:50:49.807Z,1.15
2023-04-28T00:53:16.831Z,1.33
2023-04-28T00:55:43.652Z,1.58
2023-04-28T00:58:10.716Z,1.50
2023-04-28T01:00:37.879Z,1.70
2023-04-28T01:03:05.134Z,1.58
2023-04-28T01:05:38.074Z,1.40
2023-04-28T01:08:05.066Z,2.30
2023-04-28T01:10:32.997Z,1.73
2023-04-28T01:15:36.150Z,2.15
2023-04-28T01:18:03.138Z,1.60
2023-04-28T01:20:30.602Z,1.90
2023-04-28T01:22:57.632Z,1.90
2023-04-28T01:25:24.643Z,1.52
2023-04-28T01:27:53.127Z,1.60
2023-04-28T01:30:20.020Z,1.30
2023-04-28T01:32:46.886Z,1.50
2023-04-28T01:35:13.773Z,1.38
2023-04-28T01:37:41.274Z,1.70
2023-04-28T01:40:08.824Z,1.40
2023-04-28T01:42:38.191Z,1.52
2023-04-28T01:45:05.512Z,1.40
2023-04-28T01:47:32.539Z,1.70
2023-04-28T01:49:59.424Z,1.48
2023-04-28T01:52:28.040Z,1.67
2023-04-28T01:54:55.140Z,1.83
2023-04-28T01:57:22.482Z,1.50
2023-04-28T01:59:49.701Z,1.52
2023-04-28T02:02:17.051Z,1.80
2023-04-28T02:04:44.021Z,1.63
2023-04-28T02:07:10.932Z,1.90
2023-04-28T02:09:37.838Z,1.67
2023-04-28T02:12:04.867Z,1.73
2023-04-28T02:14:35.235Z,2.00
2023-04-28T02:17:03.349Z,1.42
2023-04-28T02:19:30.169Z,1.27
2023-04-28T02:21:57.042Z,1.80
2023-04-28T02:24:23.830Z,2.00
2023-04-28T02:26:52.025Z,1.55
2023-04-28T02:29:18.701Z,1.60
2023-04-28T02:31:45.518Z,1.73
2023-04-28T02:34:12.796Z,1.63
2023-04-28T02:36:39.776Z,1.65
2023-04-28T02:39:07.532Z,1.83
2023-04-28T02:41:34.859Z,1.95
2023-04-28T02:44:01.894Z,1.73
2023-04-28T02:46:28.771Z,1.75
2023-04-28T02:48:55.522Z,2.30
2023-04-28T02:51:23.417Z,1.92
2023-04-28T02:53:50.256Z,1.63
2023-04-28T02:56:17.264Z,1.45
2023-04-28T02:58:44.168Z,1.73
2023-04-28T03:01:11.167Z,1.65
2023-04-28T03:03:38.857Z,1.42
2023-04-28T03:06:06.215Z,1.80
2023-04-28T03:08:33.161Z,1.42
2023-04-28T03:10:59.974Z,1.42
2023-04-28T03:13:29.961Z,1.58
2023-04-28T03:15:57.425Z,1.95
2023-04-28T03:18:24.593Z,1.63
2023-04-28T03:20:51.453Z,1.67
2023-04-28T03:23:18.360Z,2.35
2023-04-28T03:25:45.182Z,2.40
2023-04-28T03:28:12.235Z,2.58
2023-04-28T03:30:39.855Z,2.47
2023-04-28T03:33:07.503Z,2.10
2023-04-28T03:35:34.510Z,3.05
2023-04-28T03:38:01.985Z,2.70
2023-04-28T03:40:28.974Z,2.85
2023-04-28T03:43:10.921Z,3.00
2023-04-28T03:45:43.658Z,3.10
2023-04-28T03:48:10.770Z,3.13
2023-04-28T03:50:37.995Z,3.05
2023-04-28T03:53:05.248Z,2.67
2023-04-28T03:55:33.368Z,3.30
2023-04-28T03:58:00.441Z,3.35
2023-04-28T04:00:27.309Z,3.85
2023-04-28T04:02:54.992Z,3.35
2023-04-28T04:05:22.828Z,3.40
2023-04-28T04:07:49.847Z,3.50
2023-04-28T04:10:17.327Z,3.20
2023-04-28T04:12:45.339Z,2.95
2023-04-28T04:15:12.504Z,3.13
2023-04-28T04:17:40.595Z,3.17
2023-04-28T04:20:08.214Z,2.63
2023-04-28T04:22:35.210Z,3.25
2023-04-28T04:25:02.490Z,3.00
2023-04-28T04:27:29.661Z,3.40
2023-04-28T04:29:56.483Z,2.63
2023-04-28T04:32:23.505Z,3.10
2023-04-28T04:34:50.732Z,4.15
2023-04-28T04:37:18.462Z,2.88
2023-04-28T04:42:25.293Z,3.03
2023-04-28T04:45:15.080Z,2.50
2023-04-28T04:47:42.606Z,2.80
2023-04-28T04:50:11.913Z,2.80
2023-04-28T04:52:39.361Z,2.60
2023-04-28T04:55:07.045Z,3.15
2023-04-28T04:57:34.154Z,2.10
2023-04-28T05:00:07.119Z,2.58
2023-04-28T05:02:37.027Z,2.60
2023-04-28T05:05:20.492Z,3.17
2023-04-28T05:08:08.985Z,2.70
2023-04-28T05:10:38.114Z,2.83
2023-04-28T05:13:04.999Z,1.98
2023-04-28T05:15:32.190Z,2.78
2023-04-28T05:18:22.701Z,2.70
2023-04-28T05:20:50.266Z,2.95
2023-04-28T05:23:21.148Z,2.90
2023-04-28T05:25:48.293Z,2.30
2023-04-28T05:28:15.557Z,2.65
2023-04-28T05:30:45.028Z,1.95
2023-04-28T05:33:19.311Z,2.45
2023-04-28T05:35:49.406Z,2.40
2023-04-28T05:38:17.758Z,1.95
2023-04-28T05:40:46.102Z,2.15
2023-04-28T05:43:13.517Z,2.80
2023-04-28T05:45:40.935Z,2.90
2023-04-28T05:48:10.818Z,3.22
2023-04-28T05:50:43.287Z,2.92
2023-04-28T05:53:11.397Z,3.88
2023-04-28T05:55:40.158Z,3.08
2023-04-28T05:58:09.682Z,3.53
2023-04-28T06:00:38.012Z,3.47
2023-04-28T06:03:11.523Z,4.30
2023-04-28T06:05:39.073Z,3.20
2023-04-28T06:08:07.928Z,3.50
2023-04-28T06:10:34.813Z,4.72
2023-04-28T06:13:04.981Z,3.88
2023-04-28T06:15:36.226Z,4.13
2023-04-28T06:18:07.356Z,4.47
2023-04-28T06:20:34.415Z,4.18
2023-04-28T06:23:04.835Z,5.10
2023-04-28T06:25:32.127Z,4.57
2023-04-28T06:28:00.685Z,5.22
2023-04-28T06:30:27.647Z,4.75
2023-04-28T06:32:56.186Z,4.07
2023-04-28T06:35:23.566Z,6.10
2023-04-28T06:37:54.372Z,7.68
2023-04-28T06:40:21.909Z,7.72
2023-04-28T06:42:54.186Z,5.20
2023-04-28T06:45:27.126Z,5.72
2023-04-28T06:47:57.086Z,5.50
2023-04-28T06:50:24.660Z,5.22
2023-04-28T06:52:51.946Z,4.63
2023-04-28T06:55:19.133Z,15.82
2023-04-28T06:57:46.128Z,7.63
2023-04-28T07:00:14.325Z,5.63
2023-04-28T07:02:41.260Z,6.40
2023-04-28T07:05:09.037Z,5.72
2023-04-28T07:07:38.784Z,5.80
2023-04-28T07:10:15.111Z,7.90
2023-04-28T07:12:42.107Z,7.85
2023-04-28T07:15:10.366Z,6.07
2023-04-28T07:17:38.138Z,6.13
2023-04-28T07:20:06.221Z,7.13
2023-04-28T07:22:34.788Z,5.00
2023-04-28T07:25:04.793Z,5.90
2023-04-28T07:27:31.616Z,5.68
2023-04-28T07:29:59.923Z,6.50
2023-04-28T07:32:29.195Z,5.45
2023-04-28T07:34:56.064Z,5.68
2023-04-28T07:37:23.260Z,6.30
2023-04-28T07:39:50.337Z,5.97
2023-04-28T07:42:20.188Z,6.10
2023-04-28T07:44:48.399Z,7.20
2023-04-28T07:47:16.938Z,6.72
2023-04-28T07:49:43.768Z,5.72
2023-04-28T07:52:10.754Z,6.22
2023-04-28T07:54:46.157Z,7.35
2023-04-28T07:57:13.236Z,5.80
2023-04-28T07:59:40.223Z,5.90
2023-04-28T08:02:08.051Z,5.40
2023-04-28T08:04:40.459Z,6.53
2023-04-28T08:07:09.072Z,5.88
2023-04-28T08:09:36.447Z,6.55
2023-04-28T08:12:05.973Z,6.00
2023-04-28T08:14:33.031Z,6.75
2023-04-28T08:16:59.879Z,4.78
2023-04-28T08:19:27.237Z,5.97
2023-04-28T08:21:57.972Z,7.15
2023-04-28T08:24:24.828Z,6.20
2023-04-28T08:26:58.340Z,5.65
2023-04-28T08:29:26.113Z,5.85
2023-04-28T08:31:53.196Z,5.78
2023-04-28T08:34:21.186Z,6.38
2023-04-28T08:36:50.630Z,5.90
2023-04-28T08:39:17.781Z,6.20
2023-04-28T08:41:46.738Z,5.25
2023-04-28T08:44:16.025Z,5.60
2023-04-28T08:46:57.432Z,5.57
2023-04-28T08:49:34.757Z,5.05
2023-04-28T08:52:01.839Z,5.63
2023-04-28T08:54:32.793Z,5.55
2023-04-28T08:57:08.708Z,5.65
2023-04-28T08:59:40.413Z,5.55
2023-04-28T09:02:12.502Z,6.30
2023-04-28T09:04:42.070Z,6.22
2023-04-28T09:07:13.482Z,5.90
2023-04-28T09:09:41.276Z,6.03
2023-04-28T09:12:11.428Z,5.95
2023-04-28T09:14:43.657Z,5.22
2023-04-28T09:17:14.630Z,5.55
2023-04-28T09:19:45.990Z,5.45
2023-04-28T09:22:26.185Z,4.95
2023-04-28T09:24:55.674Z,4.47
2023-04-28T09:27:29.692Z,4.20
2023-04-28T09:29:57.247Z,4.82
2023-04-28T09:32:28.500Z,3.97
2023-04-28T09:35:02.672Z,4.13
2023-04-28T09:40:04.955Z,4.63
2023-04-28T09:42:44.482Z,4.68
2023-04-28T09:45:21.248Z,4.15
2023-04-28T09:47:50.373Z,3.83
2023-04-28T09:50:18.505Z,4.28
2023-04-28T09:52:59.320Z,4.13
2023-04-28T09:55:28.567Z,3.92
2023-04-28T09:57:56.671Z,3.85
2023-04-28T10:00:24.308Z,3.97
2023-04-28T10:02:53.431Z,4.25
2023-04-28T10:05:22.669Z,3.20
2023-04-28T10:07:53.111Z,4.13
2023-04-28T10:10:20.530Z,3.80
2023-04-28T10:12:52.133Z,3.13
2023-04-28T10:15:28.602Z,3.20
2023-04-28T10:20:23.245Z,2.83
2023-04-28T10:22:58.509Z,3.00
2023-04-28T10:25:27.947Z,2.63
2023-04-28T10:27:55.022Z,2.55
2023-04-28T10:30:28.112Z,2.58
2023-04-28T10:33:14.953Z,2.50
2023-04-28T10:35:48.769Z,2.63
2023-04-28T10:38:26.826Z,3.70
2023-04-28T10:40:57.182Z,3.78
2023-04-28T10:43:32.945Z,3.95
2023-04-28T10:46:05.157Z,3.85
2023-04-28T10:48:38.034Z,4.38
2023-04-28T10:51:17.648Z,4.68
2023-04-28T10:53:51.262Z,4.30
2023-04-28T10:56:34.485Z,4.70
2023-04-28T10:59:07.122Z,3.60
2023-04-28T11:01:42.641Z,3.20
2023-04-28T11:04:20.888Z,3.50
2023-04-28T11:07:14.977Z,3.55
2023-04-28T11:10:17.287Z,3.65
2023-04-28T11:13:27.502Z,3.50
2023-04-28T11:16:10.510Z,3.75
2023-04-28T11:19:16.645Z,3.72
2023-04-28T11:22:58.300Z,3.40
2023-04-28T11:25:28.615Z,2.72
2023-04-28T11:28:05.285Z,2.80
2023-04-28T11:30:54.956Z,2.40
2023-04-28T11:36:33.386Z,2.25
2023-04-28T11:39:10.072Z,2.55
2023-04-28T11:41:57.682Z,2.60
2023-04-28T11:44:34.589Z,2.28
2023-04-28T11:47:29.170Z,1.98
2023-04-28T11:50:04.402Z,2.28
2023-04-28T11:52:41.103Z,2.88
2023-04-28T11:55:08.346Z,2.92
2023-04-28T11:57:35.562Z,3.45
2023-04-28T12:00:19.936Z,2.47
2023-04-28T12:02:47.689Z,3.42
2023-04-28T12:05:23.872Z,4.18
2023-04-28T12:07:51.171Z,4.13
2023-04-28T12:10:19.015Z,2.92
2023-04-28T12:12:52.834Z,3.08
2023-04-28T12:15:40.109Z,3.47
2023-04-28T12:18:12.845Z,3.25
2023-04-28T12:20:39.970Z,6.90
2023-04-28T12:23:08.018Z,3.17
2023-04-28T12:25:44.058Z,8.93
2023-04-28T12:28:12.358Z,3.33
2023-04-28T12:31:17.666Z,3.13
2023-04-28T12:33:44.687Z,3.85
2023-04-28T12:36:12.487Z,3.17
2023-04-28T12:38:52.070Z,3.38
2023-04-28T12:41:19.817Z,2.88
2023-04-28T12:43:46.867Z,2.47
2023-04-28T12:46:17.650Z,3.30
2023-04-28T12:48:45.733Z,3.20
2023-04-28T12:51:13.037Z,2.63
2023-04-28T12:53:41.112Z,3.17
2023-04-28T12:56:10.545Z,2.53
2023-04-28T12:58:38.108Z,3.08
2023-04-28T13:01:05.483Z,3.45
2023-04-28T13:03:32.601Z,3.30
2023-04-28T13:06:04.914Z,3.40
2023-04-28T13:08:38.416Z,3.45
2023-04-28T13:11:32.401Z,2.95
2023-04-28T13:14:00.045Z,3.00
2023-04-28T13:16:29.555Z,2.78
2023-04-28T13:19:00.557Z,2.45
2023-04-28T13:21:29.131Z,2.38
2023-04-28T13:24:00.177Z,2.47
2023-04-28T13:26:27.237Z,2.20
2023-04-28T13:28:53.964Z,2.65
2023-04-28T13:31:25.946Z,2.60
2023-04-28T13:33:56.339Z,2.35
2023-04-28T13:36:40.617Z,2.33
2023-04-28T13:39:21.937Z,2.40
2023-04-28T13:42:00.826Z,2.60
2023-04-28T13:44:33.297Z,3.00
2023-04-28T13:47:05.506Z,2.92
2023-04-28T13:49:39.974Z,2.83
2023-04-28T13:52:12.057Z,2.72
2023-04-28T13:54:39.053Z,2.78
2023-04-28T13:57:06.079Z,3.00
2023-04-28T13:59:36.813Z,2.83
2023-04-28T14:02:04.185Z,2.13
2023-04-28T14:05:08.194Z,1.85
2023-04-28T14:07:35.192Z,2.22
2023-04-28T14:10:02.370Z,2.42
2023-04-28T14:12:29.228Z,2.10
2023-04-28T14:14:56.368Z,2.42
2023-04-28T14:17:23.650Z,2.50
2023-04-28T14:19:51.488Z,2.05
2023-04-28T14:22:18.492Z,2.28
2023-04-28T14:24:45.629Z,2.30
2023-04-28T14:27:13.343Z,2.33
2023-04-28T14:29:40.619Z,1.75
2023-04-28T14:32:17.719Z,2.50
2023-04-28T14:34:53.200Z,2.40
2023-04-28T14:37:20.476Z,1.50
2023-04-28T14:39:48.543Z,1.77
2023-04-28T14:42:15.480Z,1.95
2023-04-28T14:44:42.517Z,2.22
2023-04-28T14:47:09.731Z,1.70
2023-04-28T14:49:36.539Z,1.83
2023-04-28T14:52:03.624Z,1.75
2023-04-28T14:54:32.990Z,1.77
2023-04-28T14:57:00.216Z,2.50
2023-04-28T14:59:29.294Z,2.38
2023-04-28T15:01:56.677Z,2.33
2023-04-28T15:04:29.977Z,2.15
2023-04-28T15:06:57.317Z,2.47
2023-04-28T15:09:24.133Z,1.95
2023-04-28T15:11:51.760Z,1.77
2023-04-28T15:14:18.756Z,2.20
2023-04-28T15:16:47.082Z,1.52
2023-04-28T15:19:14.604Z,1.85
2023-04-28T15:21:42.862Z,1.88
2023-04-28T15:24:10.060Z,1.55
2023-04-28T15:26:40.027Z,1.95
2023-04-28T15:29:06.996Z,2.30
2023-04-28T15:31:38.012Z,2.10
2023-04-28T15:34:06.251Z,2.60
2023-04-28T15:36:37.158Z,3.88
2023-04-28T15:39:06.150Z,4.03
2023-04-28T15:41:34.139Z,3.28
2023-04-28T15:44:01.101Z,2.90
2023-04-28T15:46:29.078Z,3.30
2023-04-28T15:48:56.456Z,3.58
2023-04-28T15:51:23.674Z,3.00
2023-04-28T15:53:55.382Z,3.20
2023-04-28T15:56:23.831Z,2.90
2023-04-28T15:58:51.254Z,3.50
2023-04-28T16:01:18.664Z,3.63
2023-04-28T16:03:53.391Z,3.47
2023-04-28T16:06:20.453Z,3.55
2023-04-28T16:08:47.518Z,4.05
2023-04-28T16:11:17.938Z,4.05
2023-04-28T16:13:45.614Z,3.60
2023-04-28T16:16:12.711Z,3.35
2023-04-28T16:18:39.729Z,3.85
2023-04-28T16:21:06.739Z,3.10
2023-04-28T16:23:33.872Z,3.60
2023-04-28T16:26:00.985Z,3.30
2023-04-28T16:28:27.970Z,3.63
2023-04-28T16:30:54.877Z,3.63
2023-04-28T16:33:21.883Z,3.90
2023-04-28T16:35:57.766Z,3.50
2023-04-28T16:38:24.688Z,3.67
2023-04-28T16:40:52.381Z,3.38
2023-04-28T16:43:19.354Z,2.92
2023-04-28T16:45:48.507Z,3.30
2023-04-28T16:48:17.027Z,3.10
2023-04-28T16:50:44.058Z,3.78
2023-04-28T16:53:11.201Z,2.40
2023-04-28T16:55:38.111Z,2.20
2023-04-28T16:58:05.598Z,2.22
2023-04-28T17:00:32.677Z,2.25
2023-04-28T17:02:59.540Z,2.90
2023-04-28T17:05:26.784Z,2.85
2023-04-28T17:07:55.216Z,2.97
2023-04-28T17:10:22.753Z,3.17
2023-04-28T17:12:49.665Z,2.83
2023-04-28T17:15:17.553Z,3.22
2023-04-28T17:17:50.930Z,3.35
2023-04-28T17:20:19.901Z,2.90
2023-04-28T17:22:47.878Z,3.05
2023-04-28T17:25:17.102Z,3.17
2023-04-28T17:27:44.063Z,3.00
2023-04-28T17:30:14.554Z,3.00
2023-04-28T17:32:41.980Z,2.40
2023-04-28T17:35:09.290Z,4.03
2023-04-28T17:37:38.793Z,3.80
2023-04-28T17:40:05.989Z,2.70
2023-04-28T17:42:35.275Z,2.50
2023-04-28T17:45:05.318Z,3.30
2023-04-28T17:47:32.699Z,3.55
2023-04-28T17:49:59.947Z,3.10
2023-04-28T17:52:32.621Z,2.88
2023-04-28T17:54:59.727Z,3.40
2023-04-28T17:57:26.830Z,3.28
2023-04-28T17:59:54.062Z,3.67
2023-04-28T18:02:21.949Z,4.03
2023-04-28T18:04:52.065Z,4.28
2023-04-28T18:07:19.567Z,4.25
2023-04-28T18:09:46.345Z,4.47
2023-04-28T18:12:13.089Z,4.43
2023-04-28T18:14:44.373Z,3.30
2023-04-28T18:17:11.725Z,3.20
2023-04-28T18:19:38.755Z,3.28
2023-04-28T18:22:05.645Z,3.22
2023-04-28T18:24:32.503Z,2.83
2023-04-28T18:26:59.458Z,2.85
2023-04-28T18:29:26.628Z,2.83
2023-04-28T18:31:54.981Z,2.60
2023-04-28T18:34:21.872Z,2.17
2023-04-28T18:36:48.712Z,2.85
2023-04-28T18:39:15.785Z,2.15
2023-04-28T18:41:42.525Z,2.05
2023-04-28T18:44:09.417Z,2.45
2023-04-28T18:46:36.539Z,2.58
2023-04-28T18:49:03.752Z,2.83
2023-04-28T18:51:30.578Z,2.30
2023-04-28T18:53:57.561Z,2.35
2023-04-28T18:56:24.740Z,2.15
2023-04-28T18:58:51.893Z,2.50
2023-04-28T19:01:18.793Z,2.67
2023-04-28T19:03:45.929Z,2.55
2023-04-28T19:06:13.862Z,2.47
2023-04-28T19:08:42.854Z,2.45
2023-04-28T19:11:12.799Z,2.38
2023-04-28T19:13:40.337Z,2.22
2023-04-28T19:16:07.286Z,2.53
2023-04-28T19:18:34.228Z,3.08
2023-04-28T19:21:02.799Z,3.05
2023-04-28T19:23:30.992Z,2.38
2023-04-28T19:25:59.291Z,2.88
2023-04-28T19:28:26.633Z,3.20
2023-04-28T19:30:54.364Z,3.10
2023-04-28T19:33:25.481Z,2.95
2023-04-28T19:35:57.495Z,2.85
2023-04-28T19:38:31.971Z,3.38
2023-04-28T19:41:04.185Z,3.78
2023-04-28T19:43:31.922Z,3.83
2023-04-28T19:45:58.820Z,4.13
2023-04-28T19:48:26.457Z,3.60
2023-04-28T19:50:54.345Z,3.17
2023-04-28T19:53:24.080Z,4.13
2023-04-28T19:55:54.141Z,3.13
2023-04-28T19:58:21.402Z,2.60
2023-04-28T20:00:48.246Z,2.75
2023-04-28T20:03:15.261Z,2.05
2023-04-28T20:05:42.605Z,2.60
2023-04-28T20:08:09.440Z,1.92
2023-04-28T20:10:36.223Z,2.53
2023-04-28T20:13:05.875Z,2.42
2023-04-28T20:15:36.417Z,2.20
2023-04-28T20:18:05.816Z,2.00
2023-04-28T20:20:33.122Z,2.25
2023-04-28T20:23:00.023Z,1.70
2023-04-28T20:25:28.022Z,1.88
2023-04-28T20:27:55.020Z,1.60
2023-04-28T20:30:22.106Z,1.67
2023-04-28T20:32:49.586Z,1.90
2023-04-28T20:35:17.632Z,2.33
2023-04-28T20:37:44.533Z,2.05
2023-04-28T20:40:11.862Z,1.10
2023-04-28T20:42:38.824Z,2.00
2023-04-28T20:45:07.096Z,1.55
2023-04-28T20:47:33.980Z,1.60
2023-04-28T20:50:00.935Z,2.00
2023-04-28T20:52:28.660Z,3.17
2023-04-28T20:54:58.844Z,3.33
2023-04-28T20:57:28.167Z,4.53
2023-04-28T20:59:55.182Z,6.30
2023-04-28T21:02:22.145Z,5.60
2023-04-28T21:04:49.336Z,6.22
2023-04-28T21:07:19.337Z,4.38
2023-04-28T21:09:46.335Z,5.47
2023-04-28T21:12:13.428Z,4.22
2023-04-28T21:14:45.295Z,4.03
2023-04-28T21:17:12.199Z,3.35
2023-04-28T21:19:39.327Z,3.33
2023-04-28T21:22:06.269Z,2.70
2023-04-28T21:24:33.093Z,2.85
2023-04-28T21:27:00.059Z,3.30
2023-04-28T21:29:27.639Z,3.08
2023-04-28T21:31:55.083Z,3.45
2023-04-28T21:34:24.816Z,3.75
2023-04-28T21:36:54.251Z,4.35
2023-04-28T21:39:22.054Z,4.22
2023-04-28T21:41:49.054Z,4.53
2023-04-28T21:44:20.791Z,4.25
2023-04-28T21:46:47.821Z,3.65
2023-04-28T21:49:14.956Z,3.67
2023-04-28T21:51:43.022Z,4.38
2023-04-28T21:54:09.866Z,3.55
2023-04-28T21:56:37.547Z,4.38
2023-04-28T21:59:06.722Z,3.95
2023-04-28T22:01:34.329Z,4.00
2023-04-28T22:04:04.082Z,4.53
2023-04-28T22:06:38.640Z,3.83
2023-04-28T22:09:05.579Z,3.85
2023-04-28T22:11:32.902Z,3.95
2023-04-28T22:14:02.177Z,4.75
2023-04-28T22:16:30.524Z,4.32
2023-04-28T22:18:59.958Z,4.60
2023-04-28T22:21:29.222Z,4.78
2023-04-28T22:23:56.852Z,4.43
2023-04-28T22:26:29.971Z,4.88
2023-04-28T22:28:56.964Z,5.22
2023-04-28T22:31:24.085Z,5.32
2023-04-28T22:33:53.486Z,5.03
2023-04-28T22:36:21.860Z,4.78
2023-04-28T22:38:48.698Z,4.20
2023-04-28T22:41:16.172Z,3.85
2023-04-28T22:43:43.037Z,4.32
2023-04-28T22:46:10.182Z,3.83
2023-04-28T22:48:37.405Z,4.22
2023-04-28T22:51:08.773Z,3.53
2023-04-28T22:53:42.224Z,4.55
2023-04-28T22:56:09.129Z,4.25
2023-04-28T22:58:36.141Z,3.70
2023-04-28T23:01:04.431Z,3.20
2023-04-28T23:03:33.793Z,3.45
2023-04-28T23:06:05.379Z,3.22
2023-04-28T23:08:35.496Z,3.08
2023-04-28T23:11:05.588Z,2.80
2023-04-28T23:13:32.859Z,2.97
2023-04-28T23:16:03.161Z,3.00
2023-04-28T23:18:33.434Z,2.70
2023-04-28T23:21:00.616Z,2.67
2023-04-28T23:23:27.599Z,2.38
2023-04-28T23:25:55.725Z,2.55
2023-04-28T23:28:22.628Z,2.65
2023-04-28T23:30:49.722Z,2.60
2023-04-28T23:33:16.719Z,2.67
2023-04-28T23:35:46.339Z,2.55
2023-04-28T23:38:13.499Z,2.40
2023-04-28T23:40:41.344Z,1.80
2023-04-28T23:43:08.422Z,2.53
2023-04-28T23:45:36.279Z,2.30
2023-04-28T23:48:03.453Z,2.58
2023-04-28T23:50:30.237Z,2.03
2023-04-28T23:52:57.764Z,2.78
2023-04-28T23:55:24.698Z,2.25
2023-04-28T23:57:51.590Z,2.75
